sensor_id;sensor_type;location;lat;lon;timestamp;pressure;altitude;pressure_sealevel;temperature;humidity
72066;BME280;59939;52.516;13.420;2022-08-03T00:01:32;100699.25;;;21.13;46.80
72066;BME280;59939;52.516;13.420;2022-08-03T00:04:37;100694.81;;;21.08;46.94
72066;BME280;59939;52.516;13.420;2022-08-03T00:07:48;100691.41;;;20.92;47.74
72066;BME280;59939;52.516;13.420;2022-08-03T00:10:52;100690.69;;;20.99;47.63
72066;BME280;59939;52.516;13.420;2022-08-03T00:13:57;100692.97;;;20.90;47.91
72066;BME280;59939;52.516;13.420;2022-08-03T00:17:01;100696.97;;;20.92;48.32
72066;BME280;59939;52.516;13.420;2022-08-03T00:20:06;100693.16;;;21.04;47.67
72066;BME280;59939;52.516;13.420;2022-08-03T00:23:11;100689.19;;;21.05;48.49
72066;BME280;59939;52.516;13.420;2022-08-03T00:26:16;100684.75;;;20.70;48.96
72066;BME280;59939;52.516;13.420;2022-08-03T00:29:28;100681.25;;;20.77;48.81
72066;BME280;59939;52.516;13.420;2022-08-03T00:32:33;100687.06;;;20.65;49.38
72066;BME280;59939;52.516;13.420;2022-08-03T00:35:37;100681.75;;;20.56;50.03
72066;BME280;59939;52.516;13.420;2022-08-03T00:38:42;100673.28;;;20.75;48.91
72066;BME280;59939;52.516;13.420;2022-08-03T00:41:46;100672.41;;;20.71;49.79
72066;BME280;59939;52.516;13.420;2022-08-03T00:44:51;100673.50;;;20.63;50.04
72066;BME280;59939;52.516;13.420;2022-08-03T00:47:56;100672.00;;;20.69;49.78
72066;BME280;59939;52.516;13.420;2022-08-03T00:51:02;100671.34;;;20.79;49.84
72066;BME280;59939;52.516;13.420;2022-08-03T00:54:14;100667.22;;;20.70;49.78
72066;BME280;59939;52.516;13.420;2022-08-03T00:57:18;100666.97;;;20.52;50.19
72066;BME280;59939;52.516;13.420;2022-08-03T01:00:24;100667.78;;;20.52;50.61
72066;BME280;59939;52.516;13.420;2022-08-03T01:03:46;100666.97;;;20.52;49.59
72066;BME280;59939;52.516;13.420;2022-08-03T01:07:10;100665.25;;;20.44;50.62
72066;BME280;59939;52.516;13.420;2022-08-03T01:10:44;100669.28;;;20.46;49.99
72066;BME280;59939;52.516;13.420;2022-08-03T01:14:13;100663.00;;;20.53;50.69
72066;BME280;59939;52.516;13.420;2022-08-03T01:17:30;100663.88;;;20.34;50.51
72066;BME280;59939;52.516;13.420;2022-08-03T01:20:37;100656.63;;;20.30;50.15
72066;BME280;59939;52.516;13.420;2022-08-03T01:23:58;100658.63;;;20.29;50.95
72066;BME280;59939;52.516;13.420;2022-08-03T01:27:17;100652.78;;;20.38;50.00
72066;BME280;59939;52.516;13.420;2022-08-03T01:30:29;100653.38;;;20.24;51.16
72066;BME280;59939;52.516;13.420;2022-08-03T01:33:56;100649.72;;;20.43;49.36
72066;BME280;59939;52.516;13.420;2022-08-03T01:37:10;100643.84;;;20.25;51.06
72066;BME280;59939;52.516;13.420;2022-08-03T01:40:18;100643.28;;;20.39;50.25
72066;BME280;59939;52.516;13.420;2022-08-03T01:43:26;100651.63;;;20.39;50.18
72066;BME280;59939;52.516;13.420;2022-08-03T01:46:32;100644.06;;;20.66;49.50
72066;BME280;59939;52.516;13.420;2022-08-03T01:49:38;100647.59;;;20.63;48.69
72066;BME280;59939;52.516;13.420;2022-08-03T01:52:44;100644.34;;;20.57;49.54
72066;BME280;59939;52.516;13.420;2022-08-03T01:55:56;100646.75;;;20.59;48.66
72066;BME280;59939;52.516;13.420;2022-08-03T01:59:06;100644.06;;;20.66;47.92
72066;BME280;59939;52.516;13.420;2022-08-03T02:02:15;100638.53;;;20.69;47.87
72066;BME280;59939;52.516;13.420;2022-08-03T02:05:19;100637.03;;;20.75;46.13
72066;BME280;59939;52.516;13.420;2022-08-03T02:08:27;100636.66;;;20.80;45.72
72066;BME280;59939;52.516;13.420;2022-08-03T02:11:33;100641.38;;;20.73;47.07
72066;BME280;59939;52.516;13.420;2022-08-03T02:14:39;100642.44;;;20.65;47.39
72066;BME280;59939;52.516;13.420;2022-08-03T02:17:45;100639.94;;;20.56;48.55
72066;BME280;59939;52.516;13.420;2022-08-03T02:20:54;100639.03;;;20.48;48.85
72066;BME280;59939;52.516;13.420;2022-08-03T02:24:01;100638.66;;;20.50;49.40
72066;BME280;59939;52.516;13.420;2022-08-03T02:27:11;100644.97;;;20.73;47.69
72066;BME280;59939;52.516;13.420;2022-08-03T02:30:18;100641.66;;;20.98;47.40
72066;BME280;59939;52.516;13.420;2022-08-03T02:33:29;100643.53;;;21.20;46.36
72066;BME280;59939;52.516;13.420;2022-08-03T02:36:38;100640.00;;;21.23;46.54
72066;BME280;59939;52.516;13.420;2022-08-03T02:39:46;100642.97;;;20.74;47.31
72066;BME280;59939;52.516;13.420;2022-08-03T02:42:54;100632.34;;;20.87;46.86
72066;BME280;59939;52.516;13.420;2022-08-03T02:46:01;100638.19;;;20.74;46.60
72066;BME280;59939;52.516;13.420;2022-08-03T02:49:09;100637.75;;;21.02;46.43
72066;BME280;59939;52.516;13.420;2022-08-03T02:52:19;100642.31;;;21.17;46.30
72066;BME280;59939;52.516;13.420;2022-08-03T02:55:27;100641.38;;;21.40;45.78
72066;BME280;59939;52.516;13.420;2022-08-03T02:58:32;100637.94;;;20.87;47.08
72066;BME280;59939;52.516;13.420;2022-08-03T03:01:38;100649.19;;;20.94;46.92
72066;BME280;59939;52.516;13.420;2022-08-03T03:04:51;100643.94;;;20.89;46.83
72066;BME280;59939;52.516;13.420;2022-08-03T03:07:56;100650.66;;;20.84;46.79
72066;BME280;59939;52.516;13.420;2022-08-03T03:11:02;100646.31;;;21.20;46.10
72066;BME280;59939;52.516;13.420;2022-08-03T03:14:10;100649.41;;;21.45;45.94
72066;BME280;59939;52.516;13.420;2022-08-03T03:17:29;100649.09;;;21.54;45.12
72066;BME280;59939;52.516;13.420;2022-08-03T03:20:37;100645.66;;;21.30;45.73
72066;BME280;59939;52.516;13.420;2022-08-03T03:23:48;100647.94;;;21.21;45.80
72066;BME280;59939;52.516;13.420;2022-08-03T03:26:59;100649.28;;;21.01;46.40
72066;BME280;59939;52.516;13.420;2022-08-03T03:30:03;100648.09;;;21.02;46.53
72066;BME280;59939;52.516;13.420;2022-08-03T03:33:08;100645.13;;;21.21;45.86
72066;BME280;59939;52.516;13.420;2022-08-03T03:36:12;100644.44;;;20.64;47.38
72066;BME280;59939;52.516;13.420;2022-08-03T03:39:16;100641.63;;;20.94;46.50
72066;BME280;59939;52.516;13.420;2022-08-03T03:42:24;100653.50;;;20.88;46.90
72066;BME280;59939;52.516;13.420;2022-08-03T03:45:36;100645.97;;;21.22;46.01
72066;BME280;59939;52.516;13.420;2022-08-03T03:48:40;100643.19;;;20.92;46.94
72066;BME280;59939;52.516;13.420;2022-08-03T03:51:47;100645.00;;;21.10;46.22
72066;BME280;59939;52.516;13.420;2022-08-03T03:54:51;100645.88;;;20.84;46.96
72066;BME280;59939;52.516;13.420;2022-08-03T03:57:56;100640.47;;;20.65;47.29
72066;BME280;59939;52.516;13.420;2022-08-03T04:01:08;100635.47;;;20.81;47.18
72066;BME280;59939;52.516;13.420;2022-08-03T04:04:15;100630.69;;;21.12;46.25
72066;BME280;59939;52.516;13.420;2022-08-03T04:07:59;100631.44;;;21.09;46.63
72066;BME280;59939;52.516;13.420;2022-08-03T04:11:53;100640.13;;;21.34;45.38
72066;BME280;59939;52.516;13.420;2022-08-03T04:15:02;100640.03;;;21.27;45.75
72066;BME280;59939;52.516;13.420;2022-08-03T04:18:17;100636.06;;;21.28;45.96
72066;BME280;59939;52.516;13.420;2022-08-03T04:21:31;100641.00;;;21.41;45.43
72066;BME280;59939;52.516;13.420;2022-08-03T04:24:48;100640.47;;;21.29;46.02
72066;BME280;59939;52.516;13.420;2022-08-03T04:27:54;100653.75;;;21.39;45.56
72066;BME280;59939;52.516;13.420;2022-08-03T04:31:03;100643.72;;;21.75;44.44
72066;BME280;59939;52.516;13.420;2022-08-03T04:34:21;100652.25;;;21.48;44.25
72066;BME280;59939;52.516;13.420;2022-08-03T04:37:41;100657.56;;;21.24;44.65
72066;BME280;59939;52.516;13.420;2022-08-03T04:40:46;100644.41;;;21.24;43.53
72066;BME280;59939;52.516;13.420;2022-08-03T04:44:00;100656.38;;;21.25;45.81
72066;BME280;59939;52.516;13.420;2022-08-03T04:47:05;100655.59;;;21.65;44.53
72066;BME280;59939;52.516;13.420;2022-08-03T04:50:11;100649.63;;;21.66;43.97
72066;BME280;59939;52.516;13.420;2022-08-03T04:53:42;100664.25;;;21.53;43.01
72066;BME280;59939;52.516;13.420;2022-08-03T04:56:46;100660.97;;;21.43;44.19
72066;BME280;59939;52.516;13.420;2022-08-03T04:59:52;100655.47;;;21.51;45.39
72066;BME280;59939;52.516;13.420;2022-08-03T05:03:04;100657.41;;;21.87;43.71
72066;BME280;59939;52.516;13.420;2022-08-03T05:06:11;100664.81;;;21.69;42.32
72066;BME280;59939;52.516;13.420;2022-08-03T05:09:15;100650.94;;;21.76;42.70
72066;BME280;59939;52.516;13.420;2022-08-03T05:12:19;100658.94;;;21.81;43.73
72066;BME280;59939;52.516;13.420;2022-08-03T05:15:24;100657.41;;;21.87;43.08
72066;BME280;59939;52.516;13.420;2022-08-03T05:18:28;100653.91;;;21.97;43.13
72066;BME280;59939;52.516;13.420;2022-08-03T05:21:33;100663.75;;;22.28;43.74
72066;BME280;59939;52.516;13.420;2022-08-03T05:24:40;100660.53;;;22.26;41.87
72066;BME280;59939;52.516;13.420;2022-08-03T05:27:44;100657.09;;;22.51;42.89
72066;BME280;59939;52.516;13.420;2022-08-03T05:30:48;100660.66;;;22.44;42.04
72066;BME280;59939;52.516;13.420;2022-08-03T05:33:53;100657.13;;;22.54;41.40
72066;BME280;59939;52.516;13.420;2022-08-03T05:36:58;100661.78;;;22.32;41.61
72066;BME280;59939;52.516;13.420;2022-08-03T05:40:04;100665.84;;;22.45;40.63
72066;BME280;59939;52.516;13.420;2022-08-03T05:43:14;100673.06;;;22.50;40.62
72066;BME280;59939;52.516;13.420;2022-08-03T05:46:20;100669.19;;;22.10;41.25
72066;BME280;59939;52.516;13.420;2022-08-03T05:49:25;100673.63;;;22.77;41.00
72066;BME280;59939;52.516;13.420;2022-08-03T05:52:31;100668.84;;;22.77;40.48
72066;BME280;59939;52.516;13.420;2022-08-03T05:55:35;100679.03;;;23.07;39.17
72066;BME280;59939;52.516;13.420;2022-08-03T05:58:54;100671.06;;;23.20;39.28
72066;BME280;59939;52.516;13.420;2022-08-03T06:01:58;100676.31;;;23.28;39.25
72066;BME280;59939;52.516;13.420;2022-08-03T06:05:09;100671.53;;;23.36;39.21
72066;BME280;59939;52.516;13.420;2022-08-03T06:08:13;100679.22;;;23.71;38.69
72066;BME280;59939;52.516;13.420;2022-08-03T06:11:18;100678.31;;;23.42;39.84
72066;BME280;59939;52.516;13.420;2022-08-03T06:14:29;100679.22;;;23.71;38.87
72066;BME280;59939;52.516;13.420;2022-08-03T06:17:34;100677.19;;;23.61;39.31
72066;BME280;59939;52.516;13.420;2022-08-03T06:20:49;100665.53;;;23.52;39.19
72066;BME280;59939;52.516;13.420;2022-08-03T06:23:55;100677.63;;;23.77;38.72
72066;BME280;59939;52.516;13.420;2022-08-03T06:27:00;100670.44;;;24.04;38.13
72066;BME280;59939;52.516;13.420;2022-08-03T06:30:06;100677.25;;;24.46;37.24
72066;BME280;59939;52.516;13.420;2022-08-03T06:33:20;100672.84;;;24.56;37.75
72066;BME280;59939;52.516;13.420;2022-08-03T06:36:25;100680.75;;;24.86;37.16
72066;BME280;59939;52.516;13.420;2022-08-03T06:39:34;100675.81;;;25.25;36.08
72066;BME280;59939;52.516;13.420;2022-08-03T06:42:46;100682.38;;;24.83;36.13
72066;BME280;59939;52.516;13.420;2022-08-03T06:45:50;100676.75;;;24.87;36.63
72066;BME280;59939;52.516;13.420;2022-08-03T06:48:54;100676.06;;;25.56;35.16
72066;BME280;59939;52.516;13.420;2022-08-03T06:51:59;100681.13;;;25.06;35.74
72066;BME280;59939;52.516;13.420;2022-08-03T06:55:10;100674.00;;;25.67;34.46
72066;BME280;59939;52.516;13.420;2022-08-03T06:58:28;100665.34;;;25.99;33.88
72066;BME280;59939;52.516;13.420;2022-08-03T07:01:40;100681.88;;;25.90;33.89
72066;BME280;59939;52.516;13.420;2022-08-03T07:04:52;100669.41;;;26.43;32.65
72066;BME280;59939;52.516;13.420;2022-08-03T07:07:56;100675.31;;;26.07;33.37
72066;BME280;59939;52.516;13.420;2022-08-03T07:11:04;100680.81;;;25.73;34.35
72066;BME280;59939;52.516;13.420;2022-08-03T07:14:08;100675.63;;;25.68;34.40
72066;BME280;59939;52.516;13.420;2022-08-03T07:17:12;100666.44;;;26.09;33.67
72066;BME280;59939;52.516;13.420;2022-08-03T07:20:17;100673.63;;;26.61;32.90
72066;BME280;59939;52.516;13.420;2022-08-03T07:23:21;100676.44;;;26.99;32.66
72066;BME280;59939;52.516;13.420;2022-08-03T07:26:25;100675.38;;;26.86;32.62
72066;BME280;59939;52.516;13.420;2022-08-03T07:29:33;100674.34;;;27.07;32.51
72066;BME280;59939;52.516;13.420;2022-08-03T07:32:39;100661.69;;;27.49;32.17
72066;BME280;59939;52.516;13.420;2022-08-03T07:35:45;100681.34;;;27.25;31.75
72066;BME280;59939;52.516;13.420;2022-08-03T07:38:49;100665.81;;;27.71;30.94
72066;BME280;59939;52.516;13.420;2022-08-03T07:41:54;100667.66;;;28.75;29.79
72066;BME280;59939;52.516;13.420;2022-08-03T07:44:58;100669.06;;;28.20;29.89
72066;BME280;59939;52.516;13.420;2022-08-03T07:48:02;100671.72;;;28.74;29.06
72066;BME280;59939;52.516;13.420;2022-08-03T07:51:22;100671.53;;;28.84;28.56
72066;BME280;59939;52.516;13.420;2022-08-03T07:54:26;100671.44;;;27.98;30.11
72066;BME280;59939;52.516;13.420;2022-08-03T07:57:34;100673.50;;;28.64;29.25
72066;BME280;59939;52.516;13.420;2022-08-03T08:00:38;100672.50;;;29.53;27.81
72066;BME280;59939;52.516;13.420;2022-08-03T08:03:42;100661.13;;;29.57;27.70
72066;BME280;59939;52.516;13.420;2022-08-03T08:06:47;100675.31;;;30.06;26.33
72066;BME280;59939;52.516;13.420;2022-08-03T08:09:51;100663.44;;;31.43;25.02
72066;BME280;59939;52.516;13.420;2022-08-03T08:12:57;100660.69;;;31.39;25.21
72066;BME280;59939;52.516;13.420;2022-08-03T08:16:01;100667.41;;;30.62;26.37
72066;BME280;59939;52.516;13.420;2022-08-03T08:19:05;100666.28;;;32.54;23.71
72066;BME280;59939;52.516;13.420;2022-08-03T08:22:10;100672.75;;;29.43;27.26
72066;BME280;59939;52.516;13.420;2022-08-03T08:25:22;100669.13;;;30.27;26.30
72066;BME280;59939;52.516;13.420;2022-08-03T08:28:26;100662.88;;;31.61;24.56
72066;BME280;59939;52.516;13.420;2022-08-03T08:31:36;100676.41;;;30.73;25.19
72066;BME280;59939;52.516;13.420;2022-08-03T08:34:41;100670.66;;;28.87;27.71
72066;BME280;59939;52.516;13.420;2022-08-03T08:37:52;100661.75;;;30.46;25.46
72066;BME280;59939;52.516;13.420;2022-08-03T08:40:57;100667.06;;;30.60;25.04
72066;BME280;59939;52.516;13.420;2022-08-03T08:44:09;100667.44;;;30.30;25.29
72066;BME280;59939;52.516;13.420;2022-08-03T08:47:24;100671.28;;;30.52;25.54
72066;BME280;59939;52.516;13.420;2022-08-03T08:50:31;100671.06;;;29.81;26.48
72066;BME280;59939;52.516;13.420;2022-08-03T08:53:36;100657.88;;;31.52;24.50
72066;BME280;59939;52.516;13.420;2022-08-03T08:56:43;100658.75;;;32.38;22.85
72066;BME280;59939;52.516;13.420;2022-08-03T08:59:48;100659.00;;;31.17;25.14
72066;BME280;59939;52.516;13.420;2022-08-03T09:02:57;100651.28;;;32.06;23.35
72066;BME280;59939;52.516;13.420;2022-08-03T09:06:02;100657.75;;;33.32;22.01
72066;BME280;59939;52.516;13.420;2022-08-03T09:09:06;100658.81;;;31.87;23.69
72066;BME280;59939;52.516;13.420;2022-08-03T09:12:13;100657.53;;;31.50;24.06
72066;BME280;59939;52.516;13.420;2022-08-03T09:15:40;100652.88;;;31.31;23.88
72066;BME280;59939;52.516;13.420;2022-08-03T09:18:48;100669.78;;;29.50;26.53
72066;BME280;59939;52.516;13.420;2022-08-03T09:22:13;100654.69;;;29.73;25.92
72066;BME280;59939;52.516;13.420;2022-08-03T09:25:43;100654.44;;;30.16;25.53
72066;BME280;59939;52.516;13.420;2022-08-03T09:28:57;100645.38;;;30.82;24.65
72066;BME280;59939;52.516;13.420;2022-08-03T09:32:05;100646.44;;;30.60;24.48
72066;BME280;59939;52.516;13.420;2022-08-03T09:35:12;100650.78;;;29.99;25.67
72066;BME280;59939;52.516;13.420;2022-08-03T09:38:19;100632.75;;;32.83;22.33
72066;BME280;59939;52.516;13.420;2022-08-03T09:41:27;100630.94;;;35.71;18.84
72066;BME280;59939;52.516;13.420;2022-08-03T09:45:00;100640.47;;;30.70;25.16
72066;BME280;59939;52.516;13.420;2022-08-03T09:51:34;100647.22;;;30.89;24.84
72066;BME280;59939;52.516;13.420;2022-08-03T09:54:41;100637.78;;;33.54;21.39
72066;BME280;59939;52.516;13.420;2022-08-03T09:58:03;100643.44;;;33.94;20.92
72066;BME280;59939;52.516;13.420;2022-08-03T10:01:07;100632.13;;;32.45;22.99
72066;BME280;59939;52.516;13.420;2022-08-03T10:04:13;100630.84;;;33.64;21.30
72066;BME280;59939;52.516;13.420;2022-08-03T10:07:20;100623.91;;;32.81;22.05
72066;BME280;59939;52.516;13.420;2022-08-03T10:10:24;100633.78;;;32.55;22.27
72066;BME280;59939;52.516;13.420;2022-08-03T10:13:28;100625.66;;;32.66;22.38
72066;BME280;59939;52.516;13.420;2022-08-03T10:16:37;100625.22;;;32.89;22.27
72066;BME280;59939;52.516;13.420;2022-08-03T10:19:42;100612.38;;;34.63;20.30
72066;BME280;59939;52.516;13.420;2022-08-03T10:22:48;100604.81;;;36.73;17.87
72066;BME280;59939;52.516;13.420;2022-08-03T10:25:57;100609.47;;;33.50;21.51
72066;BME280;59939;52.516;13.420;2022-08-03T10:29:04;100615.25;;;33.78;20.98
72066;BME280;59939;52.516;13.420;2022-08-03T10:32:27;100601.72;;;33.51;21.04
72066;BME280;59939;52.516;13.420;2022-08-03T10:35:31;100608.03;;;32.71;21.67
72066;BME280;59939;52.516;13.420;2022-08-03T10:38:43;100604.53;;;33.42;21.34
72066;BME280;59939;52.516;13.420;2022-08-03T10:41:51;100597.56;;;33.12;22.21
72066;BME280;59939;52.516;13.420;2022-08-03T10:45:08;100595.50;;;30.72;24.80
72066;BME280;59939;52.516;13.420;2022-08-03T10:48:17;100591.19;;;33.69;21.35
72066;BME280;59939;52.516;13.420;2022-08-03T10:51:21;100609.38;;;34.58;20.20
72066;BME280;59939;52.516;13.420;2022-08-03T10:54:42;100584.25;;;36.84;18.26
72066;BME280;59939;52.516;13.420;2022-08-03T10:58:06;100581.63;;;38.41;16.97
72066;BME280;59939;52.516;13.420;2022-08-03T11:01:13;100576.94;;;38.17;16.59
72066;BME280;59939;52.516;13.420;2022-08-03T11:04:19;100585.75;;;31.78;23.50
72066;BME280;59939;52.516;13.420;2022-08-03T11:07:24;100581.88;;;31.85;23.26
72066;BME280;59939;52.516;13.420;2022-08-03T11:10:32;100579.72;;;33.42;21.42
72066;BME280;59939;52.516;13.420;2022-08-03T11:17:08;100570.38;;;32.36;22.67
72066;BME280;59939;52.516;13.420;2022-08-03T11:20:12;100597.97;;;32.35;22.84
72066;BME280;59939;52.516;13.420;2022-08-03T11:33:30;100577.81;;;33.97;20.12
72066;BME280;59939;52.516;13.420;2022-08-03T11:40:48;100555.63;;;35.68;18.98
72066;BME280;59939;52.516;13.420;2022-08-03T11:44:00;100558.47;;;39.59;15.61
72066;BME280;59939;52.516;13.420;2022-08-03T11:47:12;100565.66;;;38.80;15.51
72066;BME280;59939;52.516;13.420;2022-08-03T11:50:21;100563.66;;;36.41;17.97
72066;BME280;59939;52.516;13.420;2022-08-03T11:53:28;100553.63;;;39.82;14.76
72066;BME280;59939;52.516;13.420;2022-08-03T11:56:48;100555.47;;;40.72;14.04
72066;BME280;59939;52.516;13.420;2022-08-03T11:59:52;100552.81;;;37.48;17.20
72066;BME280;59939;52.516;13.420;2022-08-03T12:03:05;100550.63;;;34.60;20.48
72066;BME280;59939;52.516;13.420;2022-08-03T12:06:12;100565.78;;;33.93;20.79
72066;BME280;59939;52.516;13.420;2022-08-03T12:09:18;100558.22;;;32.01;23.62
72066;BME280;59939;52.516;13.420;2022-08-03T12:12:22;100554.56;;;34.08;21.66
72066;BME280;59939;52.516;13.420;2022-08-03T12:15:30;100533.25;;;35.10;19.63
72066;BME280;59939;52.516;13.420;2022-08-03T12:18:39;100562.56;;;33.64;21.59
72066;BME280;59939;52.516;13.420;2022-08-03T12:21:53;100559.66;;;32.62;22.66
72066;BME280;59939;52.516;13.420;2022-08-03T12:25:00;100547.03;;;36.01;19.07
72066;BME280;59939;52.516;13.420;2022-08-03T12:28:20;100533.16;;;37.56;17.39
72066;BME280;59939;52.516;13.420;2022-08-03T12:31:27;100544.13;;;34.69;20.41
72066;BME280;59939;52.516;13.420;2022-08-03T12:34:49;100526.25;;;34.23;21.23
72066;BME280;59939;52.516;13.420;2022-08-03T12:37:53;100535.22;;;32.21;23.46
72066;BME280;59939;52.516;13.420;2022-08-03T12:41:00;100532.78;;;33.06;23.23
72066;BME280;59939;52.516;13.420;2022-08-03T12:44:08;100526.25;;;35.11;20.23
72066;BME280;59939;52.516;13.420;2022-08-03T12:47:13;100522.66;;;35.67;19.17
72066;BME280;59939;52.516;13.420;2022-08-03T12:50:26;100513.97;;;35.61;19.52
72066;BME280;59939;52.516;13.420;2022-08-03T12:53:39;100513.50;;;35.87;19.18
72066;BME280;59939;52.516;13.420;2022-08-03T13:00:10;100514.81;;;35.53;19.60
72066;BME280;59939;52.516;13.420;2022-08-03T13:03:17;100522.78;;;32.40;23.28
72066;BME280;59939;52.516;13.420;2022-08-03T13:06:30;100526.28;;;34.50;21.34
72066;BME280;59939;52.516;13.420;2022-08-03T13:09:47;100513.06;;;35.55;19.69
72066;BME280;59939;52.516;13.420;2022-08-03T13:12:52;100508.16;;;36.18;19.27
72066;BME280;59939;52.516;13.420;2022-08-03T13:15:56;100507.88;;;38.15;17.01
72066;BME280;59939;52.516;13.420;2022-08-03T13:19:00;100503.31;;;39.98;15.49
72066;BME280;59939;52.516;13.420;2022-08-03T13:22:22;100506.09;;;34.90;20.22
72066;BME280;59939;52.516;13.420;2022-08-03T13:25:28;100506.63;;;35.70;19.54
72066;BME280;59939;52.516;13.420;2022-08-03T13:28:37;100505.41;;;35.61;19.65
72066;BME280;59939;52.516;13.420;2022-08-03T13:31:41;100517.78;;;35.25;20.43
72066;BME280;59939;52.516;13.420;2022-08-03T13:34:46;100503.06;;;37.46;18.20
72066;BME280;59939;52.516;13.420;2022-08-03T13:38:04;100496.34;;;40.43;15.11
72066;BME280;59939;52.516;13.420;2022-08-03T13:41:08;100501.66;;;38.17;17.33
72066;BME280;59939;52.516;13.420;2022-08-03T13:44:15;100494.69;;;37.07;18.23
72066;BME280;59939;52.516;13.420;2022-08-03T13:47:30;100496.50;;;36.75;18.33
72066;BME280;59939;52.516;13.420;2022-08-03T13:50:36;100493.34;;;36.29;19.05
72066;BME280;59939;52.516;13.420;2022-08-03T13:53:45;100488.41;;;36.44;18.98
72066;BME280;59939;52.516;13.420;2022-08-03T13:56:52;100486.38;;;37.24;18.24
72066;BME280;59939;52.516;13.420;2022-08-03T13:59:57;100476.59;;;38.95;16.97
72066;BME280;59939;52.516;13.420;2022-08-03T14:03:08;100473.50;;;38.15;17.83
72066;BME280;59939;52.516;13.420;2022-08-03T14:06:21;100483.97;;;37.98;17.36
72066;BME280;59939;52.516;13.420;2022-08-03T14:09:36;100471.78;;;39.18;16.29
72066;BME280;59939;52.516;13.420;2022-08-03T14:12:40;100480.00;;;36.41;18.83
72066;BME280;59939;52.516;13.420;2022-08-03T14:15:52;100470.38;;;37.73;18.10
72066;BME280;59939;52.516;13.420;2022-08-03T14:18:58;100473.13;;;38.08;17.41
72066;BME280;59939;52.516;13.420;2022-08-03T14:22:04;100467.69;;;36.64;19.13
72066;BME280;59939;52.516;13.420;2022-08-03T14:25:13;100470.25;;;36.47;19.08
72066;BME280;59939;52.516;13.420;2022-08-03T14:28:20;100470.97;;;35.41;20.26
72066;BME280;59939;52.516;13.420;2022-08-03T14:31:31;100466.44;;;35.02;20.67
72066;BME280;59939;52.516;13.420;2022-08-03T14:34:36;100465.66;;;35.01;21.03
72066;BME280;59939;52.516;13.420;2022-08-03T14:37:40;100457.38;;;35.36;20.38
72066;BME280;59939;52.516;13.420;2022-08-03T14:40:49;100452.91;;;36.21;19.83
72066;BME280;59939;52.516;13.420;2022-08-03T14:43:55;100460.78;;;35.16;20.80
72066;BME280;59939;52.516;13.420;2022-08-03T14:47:01;100457.34;;;37.31;18.22
72066;BME280;59939;52.516;13.420;2022-08-03T14:50:06;100454.59;;;38.03;17.69
72066;BME280;59939;52.516;13.420;2022-08-03T14:53:11;100448.41;;;35.52;20.18
72066;BME280;59939;52.516;13.420;2022-08-03T14:56:22;100445.81;;;36.76;18.89
72066;BME280;59939;52.516;13.420;2022-08-03T14:59:27;100453.34;;;34.16;21.85
72066;BME280;59939;52.516;13.420;2022-08-03T15:02:31;100440.31;;;37.63;17.97
72066;BME280;59939;52.516;13.420;2022-08-03T15:05:39;100436.19;;;37.08;18.82
72066;BME280;59939;52.516;13.420;2022-08-03T15:08:43;100435.94;;;38.65;17.75
72066;BME280;59939;52.516;13.420;2022-08-03T15:11:59;100422.78;;;39.87;15.90
72066;BME280;59939;52.516;13.420;2022-08-03T15:15:03;100436.13;;;38.88;16.42
72066;BME280;59939;52.516;13.420;2022-08-03T15:18:08;100432.13;;;36.80;18.76
72066;BME280;59939;52.516;13.420;2022-08-03T15:21:12;100438.50;;;33.76;22.17
72066;BME280;59939;52.516;13.420;2022-08-03T15:24:17;100438.50;;;33.85;22.27
72066;BME280;59939;52.516;13.420;2022-08-03T15:27:21;100432.81;;;33.66;22.87
72066;BME280;59939;52.516;13.420;2022-08-03T15:30:26;100420.50;;;35.23;20.55
72066;BME280;59939;52.516;13.420;2022-08-03T15:33:30;100415.28;;;34.98;21.26
72066;BME280;59939;52.516;13.420;2022-08-03T15:36:34;100423.63;;;33.90;22.26
72066;BME280;59939;52.516;13.420;2022-08-03T15:39:52;100422.97;;;33.31;23.67
72066;BME280;59939;52.516;13.420;2022-08-03T15:43:00;100417.56;;;34.33;22.09
72066;BME280;59939;52.516;13.420;2022-08-03T15:46:12;100429.94;;;34.12;21.85
72066;BME280;59939;52.516;13.420;2022-08-03T15:49:30;100413.50;;;33.89;22.69
72066;BME280;59939;52.516;13.420;2022-08-03T15:52:34;100424.16;;;33.12;24.09
72066;BME280;59939;52.516;13.420;2022-08-03T15:55:39;100427.84;;;32.81;24.05
72066;BME280;59939;52.516;13.420;2022-08-03T15:58:57;100420.00;;;33.89;23.08
72066;BME280;59939;52.516;13.420;2022-08-03T16:02:02;100413.13;;;34.42;22.35
72066;BME280;59939;52.516;13.420;2022-08-03T16:05:07;100415.56;;;34.67;22.24
72066;BME280;59939;52.516;13.420;2022-08-03T16:08:25;100410.34;;;33.50;23.53
72066;BME280;59939;52.516;13.420;2022-08-03T16:11:29;100402.34;;;34.46;22.51
72066;BME280;59939;52.516;13.420;2022-08-03T16:14:34;100403.88;;;35.22;21.45
72066;BME280;59939;52.516;13.420;2022-08-03T16:17:42;100407.06;;;35.00;21.47
72066;BME280;59939;52.516;13.420;2022-08-03T16:20:47;100404.53;;;36.03;20.37
72066;BME280;59939;52.516;13.420;2022-08-03T16:23:53;100399.63;;;36.98;19.37
72066;BME280;59939;52.516;13.420;2022-08-03T16:26:57;100404.78;;;37.14;19.23
72066;BME280;59939;52.516;13.420;2022-08-03T16:30:04;100403.50;;;37.70;18.55
72066;BME280;59939;52.516;13.420;2022-08-03T16:33:10;100402.31;;;35.45;21.04
72066;BME280;59939;52.516;13.420;2022-08-03T16:36:15;100396.25;;;33.28;24.08
72066;BME280;59939;52.516;13.420;2022-08-03T16:39:19;100407.81;;;33.98;23.02